Florida City, Florida
Current Conditions -  °F | °C
As of 10:58 PM on Thursday 18 Dec 2014 (Local Time) from KHST Reporting Station
Clear Clear  
Wind Chill: 62°   Ceiling: Unl
Heat Index: 62°   Visibility: 10mi
Dew Point: 58°   Wind: 2mph
Humidity: 87%   Direction: 340°NNW
Pressure: 30.12"   Gusts: NA
Location:  25.456°N, 80.4546°W
Report Text: KHST 190358Z AUTO 34002KT 10SM CLR 17/14 A3012 RMK AO2 SLP203 T01650144 $
Loading
Personal Weather Stations






























Interactive Weather Map New forecast layout! Learn more

10-Day Weather Forecast

Advertisements
Track Severe Weather on mobile